Time;durP1;ratioP1;P1;durP2;ratioP2;P2;SDS_P1;SDS_P2;PMS_P1;PMS_P2;Temp;Humidity;BMP_temperature;BMP_pressure;BME280_temperature;BME280_humidity;BME280_pressure;Samples;Min_cycle;Max_cycle;Signal;HPM_P1;HPM_P2
2022/06/21 00:00:30;;;;;;;;;12.00;12.00;;;;;21.38;46.39;100778.41;5104599;27;45353;-50
2022/06/21 00:03:01;;;;;;;;;16.00;12.00;;;;;21.36;45.99;100783.81;5107626;27;45356;-46
2022/06/21 00:05:46;;;;;;;;;12.00;10.75;;;;;21.35;46.35;100778.59;5094687;27;45790;-50
2022/06/21 00:08:18;;;;;;;;;14.00;14.00;;;;;21.34;46.46;100766.28;5108234;27;45482;-49
2022/06/21 00:10:44;;;;;;;;;13.00;13.00;;;;;21.28;46.43;100754.22;5110808;27;45474;-47
2022/06/21 00:13:16;;;;;;;;;14.75;13.75;;;;;21.22;46.73;100749.38;5105803;27;45524;-49
2022/06/21 00:15:42;;;;;;;;;17.50;14.75;;;;;21.17;46.45;100754.16;5104198;27;45422;-49
2022/06/21 00:18:11;;;;;;;;;14.25;13.75;;;;;21.11;46.68;100758.13;5099758;27;46975;-49
2022/06/21 00:20:36;;;;;;;;;16.00;15.00;;;;;21.05;46.31;100751.44;5106436;27;45656;-51
2022/06/21 00:23:03;;;;;;;;;14.25;14.25;;;;;21.00;46.46;100742.03;5109759;27;45566;-51
2022/06/21 00:25:28;;;;;;;;;18.00;16.00;;;;;20.96;46.86;100740.56;5104713;27;74371;-50
2022/06/21 00:27:55;;;;;;;;;17.25;13.75;;;;;20.93;47.05;100744.31;5102895;27;45435;-50
2022/06/21 00:30:21;;;;;;;;;18.00;16.00;;;;;20.90;47.09;100739.19;5100882;27;45397;-46
2022/06/21 00:32:49;;;;;;;;;17.75;14.00;;;;;20.86;46.64;100743.88;5103391;27;45375;-50
2022/06/21 00:35:16;;;;;;;;;14.25;13.75;;;;;20.84;46.82;100755.56;5103533;27;46279;-50
2022/06/21 00:37:43;;;;;;;;;15.50;14.50;;;;;20.81;47.21;100754.00;5106429;27;46095;-49
2022/06/21 00:40:17;;;;;;;;;13.50;13.25;;;;;20.79;46.90;100742.63;5111447;27;45481;-50
2022/06/21 00:42:45;;;;;;;;;17.25;15.25;;;;;20.78;47.22;100740.91;5107388;27;45508;-48
2022/06/21 00:45:23;;;;;;;;;12.75;12.75;;;;;20.76;47.09;100747.28;5100541;27;46235;-50
2022/06/21 00:47:52;;;;;;;;;16.00;15.75;;;;;20.72;47.43;100737.84;5111194;27;45477;-49
2022/06/21 00:50:33;;;;;;;;;16.50;13.75;;;;;20.69;47.04;100744.19;5110703;27;46083;-52
2022/06/21 00:53:06;;;;;;;;;15.75;14.00;;;;;20.66;47.08;100739.97;5108234;27;45647;-51
2022/06/21 00:55:48;;;;;;;;;17.00;14.25;;;;;20.64;47.43;100743.66;5105766;27;46209;-49
2022/06/21 00:58:15;;;;;;;;;17.50;15.00;;;;;20.60;47.47;100731.53;5103022;27;45483;-48
2022/06/21 01:01:13;;;;;;;;;12.75;12.75;;;;;20.54;47.52;100747.88;5099811;27;45282;-50
2022/06/21 01:03:43;;;;;;;;;11.50;11.25;;;;;20.48;47.31;100757.97;5101854;27;45636;-48
2022/06/21 01:06:19;;;;;;;;;12.50;12.25;;;;;20.46;47.46;100762.56;5100753;27;45496;-48
2022/06/21 01:08:47;;;;;;;;;14.00;12.75;;;;;20.44;47.32;100753.84;5103500;27;45393;-51
2022/06/21 01:11:21;;;;;;;;;11.25;11.00;;;;;20.41;47.59;100759.34;5097694;27;45255;-48
2022/06/21 01:13:50;;;;;;;;;13.25;10.75;;;;;20.40;47.51;100756.81;5104652;27;45444;-49
2022/06/21 01:16:16;;;;;;;;;15.00;13.00;;;;;20.35;47.41;100745.66;5105452;27;45500;-51
2022/06/21 01:18:43;;;;;;;;;13.75;12.25;;;;;20.32;47.87;100743.19;5103113;27;56991;-51
2022/06/21 01:21:12;;;;;;;;;11.00;10.75;;;;;20.26;47.43;100750.63;5099601;27;46141;-49
2022/06/21 01:23:55;;;;;;;;;11.50;11.00;;;;;20.23;47.80;100749.97;5103483;27;45606;-50
2022/06/21 01:26:41;;;;;;;;;12.75;12.25;;;;;20.17;47.48;100753.03;5103581;27;46324;-46
2022/06/21 01:29:10;;;;;;;;;12.50;12.00;;;;;20.12;48.37;100755.19;5106813;27;45390;-50
2022/06/21 01:31:36;;;;;;;;;11.25;10.00;;;;;20.05;47.93;100766.19;5105248;27;45843;-48
2022/06/21 01:34:01;;;;;;;;;13.00;10.25;;;;;20.05;48.22;100765.34;5105623;27;68347;-47
2022/06/21 01:36:29;;;;;;;;;12.75;11.75;;;;;20.02;48.38;100755.75;5111625;27;73892;-47
2022/06/21 01:39:05;;;;;;;;;11.75;10.25;;;;;20.02;48.18;100754.91;5102830;27;45832;-48
2022/06/21 01:41:35;;;;;;;;;9.50;8.00;;;;;20.04;48.27;100755.66;5103383;27;45483;-48
2022/06/21 01:44:09;;;;;;;;;16.50;10.50;;;;;20.04;48.04;100764.50;5101316;27;45518;-50
2022/06/21 01:46:35;;;;;;;;;11.50;11.50;;;;;20.04;48.33;100766.28;5101895;27;46730;-49
2022/06/21 01:49:10;;;;;;;;;14.50;11.00;;;;;20.03;48.23;100780.53;5097366;27;66326;-47
2022/06/21 01:51:47;;;;;;;;;13.50;13.00;;;;;20.02;48.18;100773.50;5105476;27;45500;-47
2022/06/21 01:54:15;;;;;;;;;10.50;9.75;;;;;20.01;48.21;100779.78;5103901;27;45546;-46
2022/06/21 01:56:41;;;;;;;;;10.25;9.50;;;;;19.98;48.17;100786.16;5112818;27;45509;-48
2022/06/21 01:59:11;;;;;;;;;10.25;9.25;;;;;20.01;48.22;100803.69;5109621;27;45473;-47
2022/06/21 02:01:43;;;;;;;;;12.75;9.00;;;;;20.03;48.23;100817.75;5110346;27;45420;-48
2022/06/21 02:04:09;;;;;;;;;13.50;10.50;;;;;20.06;47.84;100842.28;5114895;27;45506;-49
2022/06/21 02:06:38;;;;;;;;;12.25;10.25;;;;;20.11;47.92;100863.22;5109400;27;49546;-49
2022/06/21 02:09:07;;;;;;;;;12.50;11.75;;;;;20.15;48.14;100861.22;5105378;27;45464;-49
2022/06/21 02:11:39;;;;;;;;;11.50;9.75;;;;;20.18;48.33;100853.06;5111303;27;45297;-48
2022/06/21 02:14:28;;;;;;;;;13.00;9.25;;;;;20.20;47.81;100845.84;5109954;27;45373;-50
2022/06/21 02:17:15;;;;;;;;;12.00;11.00;;;;;20.21;48.24;100834.28;5110987;27;46304;-50
2022/06/21 02:19:43;;;;;;;;;10.50;9.00;;;;;20.22;47.95;100827.97;5109749;27;45574;-51
2022/06/21 02:22:19;;;;;;;;;13.25;12.25;;;;;20.24;48.44;100826.94;5109490;27;45715;-51
2022/06/21 02:24:45;;;;;;;;;13.00;12.00;;;;;20.25;48.27;100830.44;5110490;27;45430;-50
2022/06/21 02:27:16;;;;;;;;;11.50;10.00;;;;;20.24;47.93;100821.63;5109531;27;45682;-50
2022/06/21 02:29:44;;;;;;;;;10.50;9.75;;;;;20.22;48.19;100814.69;5108999;27;45901;-48
2022/06/21 02:32:28;;;;;;;;;10.75;9.50;;;;;20.19;48.18;100801.63;5106319;27;45382;-48
2022/06/21 02:34:58;;;;;;;;;14.50;11.50;;;;;20.13;48.14;100775.47;5104243;27;45455;-50
2022/06/21 02:37:24;;;;;;;;;13.00;11.50;;;;;20.09;48.32;100758.88;5097117;27;45397;-50
2022/06/21 02:39:50;;;;;;;;;15.00;12.00;;;;;20.06;48.03;100753.75;5104125;27;46117;-48
2022/06/21 02:42:20;;;;;;;;;11.50;10.75;;;;;20.05;48.69;100744.09;5105715;27;45386;-46
2022/06/21 02:44:52;;;;;;;;;11.25;10.00;;;;;20.01;48.16;100731.94;5100778;27;45406;-52
2022/06/21 02:47:27;;;;;;;;;16.00;13.00;;;;;19.99;48.33;100742.72;5096416;27;47119;-48
2022/06/21 02:49:58;;;;;;;;;15.75;13.25;;;;;19.98;48.38;100740.16;5110846;27;45510;-47
2022/06/21 02:52:30;;;;;;;;;14.00;12.00;;;;;19.96;48.28;100750.03;5109448;27;45523;-49
2022/06/21 02:55:02;;;;;;;;;14.25;13.50;;;;;19.92;48.67;100746.72;5118286;27;45648;-46
2022/06/21 02:57:30;;;;;;;;;13.00;11.75;;;;;19.91;48.62;100745.84;5110069;27;46381;-43
2022/06/21 02:59:56;;;;;;;;;11.50;10.50;;;;;19.90;48.62;100740.63;5109186;27;45357;-49
2022/06/21 03:02:24;;;;;;;;;11.00;9.25;;;;;19.90;48.32;100740.63;5107652;27;45455;-44
2022/06/21 03:04:54;;;;;;;;;13.25;11.50;;;;;19.88;48.59;100743.41;5107187;27;45497;-49
2022/06/21 03:07:23;;;;;;;;;10.00;9.00;;;;;19.83;48.79;100740.22;5104399;27;46723;-48
2022/06/21 03:09:48;;;;;;;;;11.50;9.25;;;;;19.80;48.44;100736.91;5106347;27;47413;-49
2022/06/21 03:12:19;;;;;;;;;10.00;8.00;;;;;19.77;48.91;100722.00;5110427;27;45364;-45
2022/06/21 03:14:45;;;;;;;;;13.00;11.00;;;;;19.76;49.36;100720.31;5108312;27;45590;-49
2022/06/21 03:17:11;;;;;;;;;10.75;10.50;;;;;19.73;49.24;100720.50;5113228;27;45469;-49
2022/06/21 03:19:54;;;;;;;;;12.00;9.00;;;;;19.70;48.70;100704.75;5109374;27;45344;-47
2022/06/21 03:22:27;;;;;;;;;14.25;13.00;;;;;19.71;49.72;100703.81;5110693;27;45389;-51
2022/06/21 03:24:54;;;;;;;;;14.00;12.50;;;;;19.70;49.66;100699.44;5100689;27;45436;-48
2022/06/21 03:27:33;;;;;;;;;13.75;12.75;;;;;19.70;49.30;100689.66;5105734;27;45436;-50
2022/06/21 03:30:00;;;;;;;;;14.25;12.00;;;;;19.70;49.27;100671.06;5109098;27;45332;-46
2022/06/21 03:32:28;;;;;;;;;8.50;8.25;;;;;19.71;49.43;100663.97;5104944;27;45450;-49
2022/06/21 03:34:54;;;;;;;;;11.50;10.00;;;;;19.70;49.40;100657.78;5104017;27;45519;-49
2022/06/21 03:37:20;;;;;;;;;12.00;10.50;;;;;19.70;49.52;100649.84;5100958;27;45524;-49
2022/06/21 03:42:34;;;;;;;;;14.75;11.00;;;;;19.72;49.30;100632.03;5104735;27;45397;-48
2022/06/21 03:45:13;;;;;;;;;10.75;8.00;;;;;19.71;49.40;100613.53;5107934;27;45507;-47
2022/06/21 03:47:53;;;;;;;;;10.75;8.25;;;;;19.71;49.65;100613.53;5111162;27;46438;-47
2022/06/21 03:50:42;;;;;;;;;10.00;10.00;;;;;19.69;49.76;100604.81;5102005;27;45739;-49
2022/06/21 03:53:22;;;;;;;;;9.50;9.50;;;;;19.69;49.57;100600.34;5103960;27;45411;-48
2022/06/21 03:56:05;;;;;;;;;10.25;9.75;;;;;19.69;49.77;100602.19;5104538;27;47446;-48
2022/06/21 03:58:46;;;;;;;;;13.75;11.00;;;;;19.67;49.72;100594.31;5109696;27;45388;-52
2022/06/21 04:01:34;;;;;;;;;11.25;9.75;;;;;19.64;50.56;100583.88;5102979;27;46068;-47
2022/06/21 04:04:12;;;;;;;;;9.25;8.50;;;;;19.60;50.06;100584.19;5114629;27;45380;-50
2022/06/21 04:06:42;;;;;;;;;9.25;9.00;;;;;19.54;50.34;100565.06;5104993;27;45537;-48
2022/06/21 04:09:38;;;;;;;;;11.00;9.25;;;;;19.51;50.43;100567.06;5105352;27;46225;-49
2022/06/21 04:12:29;;;;;;;;;8.75;8.75;;;;;19.48;50.75;100576.09;5095532;27;46028;-48
2022/06/21 04:15:02;;;;;;;;;10.25;9.00;;;;;19.44;50.92;100558.69;5104320;27;48132;-47
2022/06/21 04:17:48;;;;;;;;;11.50;9.75;;;;;19.43;50.66;100572.06;5106959;27;45395;-51
2022/06/21 04:20:26;;;;;;;;;10.50;10.25;;;;;19.43;51.07;100564.94;5100372;27;45304;-46
2022/06/21 04:22:58;;;;;;;;;11.25;8.00;;;;;19.43;50.90;100561.44;5112614;27;45740;-51
2022/06/21 04:25:50;;;;;;;;;9.50;9.25;;;;;19.42;51.06;100557.06;5109068;27;45419;-50
2022/06/21 04:28:23;;;;;;;;;12.75;10.00;;;;;19.40;51.57;100543.06;5103650;27;45306;-46
2022/06/21 04:30:57;;;;;;;;;11.75;11.50;;;;;19.37;51.40;100543.25;5109332;27;46234;-49
2022/06/21 04:33:29;;;;;;;;;14.00;13.50;;;;;19.30;52.55;100542.81;5105409;27;45443;-50
2022/06/21 04:36:02;;;;;;;;;11.00;11.00;;;;;19.25;51.85;100537.00;5109074;27;45860;-48
2022/06/21 04:38:35;;;;;;;;;12.25;10.00;;;;;19.20;52.35;100539.09;5108695;27;45752;-51
2022/06/21 04:41:09;;;;;;;;;12.25;11.25;;;;;19.16;52.30;100534.00;5108400;27;46151;-49
2022/06/21 04:43:49;;;;;;;;;12.25;10.50;;;;;19.14;52.42;100535.03;5103610;27;45581;-48
2022/06/21 04:46:29;;;;;;;;;14.75;11.00;;;;;19.08;52.65;100523.03;5100698;27;45531;-52
2022/06/21 04:49:22;;;;;;;;;12.25;10.25;;;;;19.04;52.51;100526.84;5105876;27;45570;-50
2022/06/21 04:51:54;;;;;;;;;10.75;10.00;;;;;19.06;53.03;100521.44;5107341;27;46411;-51
2022/06/21 04:54:24;;;;;;;;;11.00;9.00;;;;;19.05;52.81;100519.72;5097841;27;45902;-48
2022/06/21 04:57:10;;;;;;;;;10.75;9.00;;;;;19.06;52.93;100524.09;5106562;27;46125;-46
2022/06/21 04:59:42;;;;;;;;;10.00;9.00;;;;;19.01;53.35;100518.25;5102479;27;45437;-50
2022/06/21 05:02:22;;;;;;;;;10.50;10.50;;;;;18.97;53.07;100513.13;5110275;27;45754;-48
2022/06/21 05:04:51;;;;;;;;;12.50;11.00;;;;;18.95;53.68;100511.53;5104449;27;45404;-46
2022/06/21 05:07:24;;;;;;;;;14.25;9.00;;;;;18.90;53.97;100518.94;5105318;27;45443;-52
2022/06/21 05:09:50;;;;;;;;;13.25;10.75;;;;;18.84;54.02;100514.03;5098591;27;45309;-51
2022/06/21 05:12:32;;;;;;;;;13.00;10.75;;;;;18.81;53.86;100530.13;5100356;27;47286;-52
2022/06/21 05:15:03;;;;;;;;;12.25;12.25;;;;;18.76;54.34;100543.66;5101061;27;45551;-49
2022/06/21 05:17:29;;;;;;;;;12.00;12.00;;;;;18.69;54.00;100551.16;5102062;27;45459;-49
2022/06/21 05:20:00;;;;;;;;;12.00;11.25;;;;;18.70;54.37;100565.28;5104268;27;45515;-52
2022/06/21 05:22:33;;;;;;;;;15.25;12.75;;;;;18.70;54.35;100566.13;5105791;27;46235;-51
2022/06/21 05:24:59;;;;;;;;;11.75;10.50;;;;;18.72;54.63;100582.78;5109534;27;45385;-49
2022/06/21 05:27:38;;;;;;;;;10.25;7.25;;;;;18.77;54.64;100583.34;5097532;27;45644;-50
2022/06/21 05:30:05;;;;;;;;;11.75;11.75;;;;;18.79;54.24;100584.09;5107992;27;45651;-50
2022/06/21 05:32:37;;;;;;;;;13.75;11.00;;;;;18.84;54.02;100583.84;5112706;27;45808;-46
2022/06/21 05:35:09;;;;;;;;;15.00;13.00;;;;;18.88;54.27;100581.84;5118309;27;45421;-47
2022/06/21 05:37:39;;;;;;;;;11.75;11.25;;;;;18.89;54.75;100580.88;5098453;27;45317;-48
2022/06/21 05:40:19;;;;;;;;;13.00;12.00;;;;;18.91;54.18;100584.25;5116760;27;45345;-47
2022/06/21 05:42:45;;;;;;;;;12.25;11.25;;;;;18.92;54.48;100567.41;5113147;27;45428;-46
2022/06/21 05:45:14;;;;;;;;;15.50;12.25;;;;;18.94;54.11;100569.00;5110396;27;48230;-45
2022/06/21 05:47:41;;;;;;;;;12.25;11.50;;;;;18.97;55.07;100562.69;5119253;27;45537;-46
2022/06/21 05:50:11;;;;;;;;;16.00;12.50;;;;;18.97;54.17;100573.28;5115093;27;45500;-45
2022/06/21 05:52:40;;;;;;;;;15.50;11.75;;;;;18.99;54.87;100566.06;5109187;27;46985;-47
2022/06/21 05:55:09;;;;;;;;;14.50;11.75;;;;;19.00;54.68;100572.22;5111403;27;45546;-46
2022/06/21 05:57:41;;;;;;;;;16.75;12.25;;;;;19.01;54.27;100579.22;5114455;27;45372;-48
2022/06/21 06:00:20;;;;;;;;;16.00;13.75;;;;;19.00;54.40;100570.44;5113000;27;45605;-46
2022/06/21 06:02:50;;;;;;;;;12.25;11.00;;;;;19.03;54.12;100562.25;5113145;27;46244;-51
2022/06/21 06:05:27;;;;;;;;;11.25;9.50;;;;;19.06;54.48;100556.75;5111060;27;45478;-45
2022/06/21 06:07:56;;;;;;;;;13.75;13.00;;;;;19.09;54.46;100553.91;5113555;27;45566;-45
2022/06/21 06:10:23;;;;;;;;;19.25;12.00;;;;;19.14;54.77;100561.56;5118295;27;45259;-46
2022/06/21 06:12:56;;;;;;;;;16.00;15.00;;;;;19.12;54.78;100577.59;5113579;27;46127;-45
2022/06/21 06:15:25;;;;;;;;;12.25;11.00;;;;;19.09;54.05;100567.19;5113504;27;45386;-50
2022/06/21 06:18:15;;;;;;;;;15.25;12.75;;;;;19.13;53.83;100562.53;5115502;27;45550;-49
2022/06/21 06:20:55;;;;;;;;;12.50;11.50;;;;;19.13;54.02;100549.25;5101307;27;45409;-49
2022/06/21 06:23:27;;;;;;;;;19.25;13.00;;;;;19.10;53.97;100555.59;5118266;27;46329;-51
2022/06/21 06:26:05;;;;;;;;;12.25;10.75;;;;;19.14;53.93;100562.44;5112094;27;45439;-52
2022/06/21 06:28:38;;;;;;;;;14.50;12.50;;;;;19.20;53.98;100558.50;5111897;27;45556;-51
2022/06/21 06:31:19;;;;;;;;;16.75;14.00;;;;;19.25;53.93;100550.25;5115423;27;45475;-52
2022/06/21 06:33:55;;;;;;;;;14.50;14.25;;;;;19.29;54.00;100544.63;5108304;27;45382;-52
2022/06/21 06:36:27;;;;;;;;;17.50;13.00;;;;;19.32;53.38;100544.44;5104575;27;45242;-50
2022/06/21 06:38:53;;;;;;;;;13.25;11.00;;;;;19.37;53.44;100557.41;5111132;27;45359;-51
2022/06/21 06:41:26;;;;;;;;;14.00;14.00;;;;;19.43;53.73;100574.72;5096470;27;46198;-51
2022/06/21 06:43:58;;;;;;;;;18.25;14.75;;;;;19.49;53.15;100574.28;5112795;27;45565;-52
2022/06/21 06:46:32;;;;;;;;;16.50;14.50;;;;;19.53;53.50;100573.16;5118955;27;45890;-50
2022/06/21 06:49:23;;;;;;;;;13.25;11.00;;;;;19.59;52.89;100578.03;5106548;27;45465;-48
2022/06/21 06:51:55;;;;;;;;;11.75;11.75;;;;;19.66;52.75;100583.78;5109921;27;45315;-46
2022/06/21 06:54:44;;;;;;;;;11.25;11.25;;;;;19.71;52.80;100586.97;5112534;27;45353;-50
2022/06/21 06:57:25;;;;;;;;;18.00;12.75;;;;;19.77;52.62;100591.91;5118100;27;45412;-48
2022/06/21 06:59:50;;;;;;;;;16.25;13.25;;;;;19.82;52.68;100600.41;5112071;27;45601;-50
2022/06/21 07:02:17;;;;;;;;;15.75;12.00;;;;;19.89;52.49;100607.00;5104847;27;45267;-50
2022/06/21 07:04:46;;;;;;;;;17.00;11.50;;;;;19.94;52.37;100593.41;5105329;27;46680;-47
2022/06/21 07:07:19;;;;;;;;;16.00;13.50;;;;;19.99;52.60;100587.75;5099828;27;45795;-50
2022/06/21 07:09:48;;;;;;;;;12.25;11.50;;;;;20.02;52.23;100598.19;5113812;27;45622;-48
2022/06/21 07:12:18;;;;;;;;;13.25;13.00;;;;;20.04;52.38;100609.56;5106991;27;45483;-49
2022/06/21 07:14:44;;;;;;;;;17.25;13.00;;;;;20.09;52.19;100615.41;5112229;27;46043;-48
2022/06/21 07:17:32;;;;;;;;;14.75;12.00;;;;;20.14;52.56;100618.59;5113776;27;45268;-46
2022/06/21 07:19:58;;;;;;;;;17.75;13.50;;;;;20.20;52.00;100619.97;5113318;27;45348;-50
2022/06/21 07:22:43;;;;;;;;;12.00;11.75;;;;;20.23;52.25;100620.59;5099714;27;55628;-47
2022/06/21 07:25:26;;;;;;;;;13.75;10.00;;;;;20.29;52.10;100632.63;5108796;27;46023;-48
2022/06/21 07:27:56;;;;;;;;;14.75;12.00;;;;;20.38;51.98;100623.16;5111196;27;45776;-49
2022/06/21 07:30:26;;;;;;;;;13.75;11.25;;;;;20.44;52.14;100617.41;5103394;27;45469;-50
2022/06/21 07:32:56;;;;;;;;;12.25;12.00;;;;;20.52;51.82;100616.88;5105342;27;45366;-46
2022/06/21 07:35:27;;;;;;;;;15.50;15.25;;;;;20.58;51.65;100619.94;5112142;27;46412;-47
2022/06/21 07:38:10;;;;;;;;;15.50;13.25;;;;;20.64;51.97;100618.69;5101200;27;45879;-46
2022/06/21 07:40:43;;;;;;;;;19.00;15.25;;;;;20.69;51.74;100621.03;5105494;27;45509;-48
2022/06/21 07:43:30;;;;;;;;;16.75;16.00;;;;;20.75;51.50;100634.75;5106927;27;46412;-49
2022/06/21 07:45:59;;;;;;;;;20.50;12.50;;;;;20.80;51.23;100626.44;5102104;27;45490;-48
2022/06/21 07:48:48;;;;;;;;;16.00;15.00;;;;;20.86;51.42;100632.16;5106435;27;45789;-49
2022/06/21 07:51:20;;;;;;;;;21.25;15.25;;;;;20.94;51.52;100626.28;5110204;27;45371;-46
2022/06/21 07:53:51;;;;;;;;;15.00;14.50;;;;;21.01;51.19;100627.53;5099540;27;45471;-48
2022/06/21 07:56:24;;;;;;;;;15.00;14.25;;;;;21.08;51.49;100629.75;5108407;27;46159;-47
2022/06/21 07:59:04;;;;;;;;;14.25;13.25;;;;;21.13;51.50;100639.09;5102652;27;45756;-49
2022/06/21 08:07:31;;;;;;;;;13.50;13.00;;;;;21.31;51.39;100636.06;5107060;27;45767;-51
2022/06/21 08:10:02;;;;;;;;;17.50;13.00;;;;;21.39;50.76;100628.38;5099955;27;45961;-49
2022/06/21 08:12:28;;;;;;;;;16.25;12.00;;;;;21.48;51.08;100624.16;5106634;27;45430;-47
2022/06/21 08:14:54;;;;;;;;;16.75;12.25;;;;;21.53;50.81;100627.34;5099013;27;71668;-47
2022/06/21 08:17:50;;;;;;;;;12.50;12.50;;;;;21.60;51.08;100618.78;5102738;27;56208;-48
2022/06/21 08:20:23;;;;;;;;;14.25;12.75;;;;;21.68;50.78;100614.69;5099784;27;45298;-49
2022/06/21 08:23:10;;;;;;;;;18.75;15.00;;;;;21.76;51.03;100634.47;5104211;27;45377;-46
2022/06/21 08:25:54;;;;;;;;;14.25;12.75;;;;;21.83;50.70;100632.16;5104608;27;45518;-50
2022/06/21 08:28:25;;;;;;;;;17.25;13.75;;;;;21.90;50.88;100630.75;5104138;27;45420;-50
2022/06/21 08:30:52;;;;;;;;;19.50;16.00;;;;;21.99;50.83;100629.19;5112459;27;45962;-50
2022/06/21 08:33:37;;;;;;;;;19.75;17.00;;;;;22.08;50.55;100630.28;5101631;27;45385;-52
2022/06/21 08:36:06;;;;;;;;;14.00;11.75;;;;;22.19;50.49;100633.84;5104104;27;45424;-48
2022/06/21 08:39:05;;;;;;;;;15.00;13.50;;;;;22.31;50.55;100637.41;5103637;27;46228;-49
2022/06/21 08:41:55;;;;;;;;;16.75;14.25;;;;;22.45;50.78;100649.66;5103609;27;45542;-47
2022/06/21 08:48:03;;;;;;;;;17.00;13.00;;;;;22.67;50.13;100650.63;5100751;27;46911;-49
2022/06/21 08:51:04;;;;;;;;;14.00;14.00;;;;;22.74;50.02;100651.84;5093959;27;46746;-50
2022/06/21 08:54:03;;;;;;;;;15.00;14.00;;;;;22.81;49.88;100647.69;5104532;27;45285;-51
2022/06/21 08:56:43;;;;;;;;;15.25;14.25;;;;;22.88;50.09;100640.06;5106191;27;45374;-47
2022/06/21 08:59:27;;;;;;;;;16.25;15.25;;;;;22.92;49.50;100636.16;5100877;27;45629;-48
2022/06/21 09:02:07;;;;;;;;;14.00;13.50;;;;;22.96;49.86;100637.59;5102592;27;46988;-49
2022/06/21 09:04:54;;;;;;;;;14.50;14.00;;;;;22.96;49.94;100637.59;5105248;27;45475;-49
2022/06/21 09:07:31;;;;;;;;;15.25;15.00;;;;;23.00;50.15;100628.41;5102928;27;45309;-52
2022/06/21 09:10:11;;;;;;;;;18.25;14.50;;;;;23.06;49.63;100627.91;5105992;27;45411;-51
2022/06/21 09:12:59;;;;;;;;;16.75;15.25;;;;;23.13;49.57;100626.44;5108396;27;45389;-51
2022/06/21 09:15:47;;;;;;;;;14.25;13.50;;;;;23.17;49.86;100628.88;5105434;27;45943;-52
2022/06/21 09:18:37;;;;;;;;;13.25;11.75;;;;;23.20;49.65;100632.13;5106445;27;45362;-51
2022/06/21 09:21:31;;;;;;;;;16.50;15.00;;;;;23.21;49.53;100633.81;5112565;27;45584;-51
2022/06/21 09:23:59;;;;;;;;;21.00;16.00;;;;;23.21;49.90;100633.81;5111985;27;46406;-52
2022/06/21 09:26:38;;;;;;;;;13.00;12.25;;;;;23.23;49.29;100633.69;5106058;27;45727;-48
2022/06/21 09:29:13;;;;;;;;;19.50;15.50;;;;;23.26;49.50;100639.63;5105998;27;45546;-45
2022/06/21 09:31:56;;;;;;;;;16.75;15.75;;;;;23.29;49.37;100642.03;5107594;27;45436;-47
2022/06/21 09:35:01;;;;;;;;;17.75;15.00;;;;;23.32;49.07;100632.94;5106511;27;46301;-48
2022/06/21 09:37:40;;;;;;;;;17.50;15.00;;;;;23.40;49.77;100629.63;5100569;27;45955;-49
2022/06/21 09:40:30;;;;;;;;;18.50;13.50;;;;;23.56;49.39;100631.88;5110166;27;45324;-48
2022/06/21 09:43:03;;;;;;;;;18.50;15.25;;;;;23.77;49.19;100626.56;5107801;27;45514;-46
2022/06/21 09:45:38;;;;;;;;;16.25;14.25;;;;;24.15;48.89;100623.34;5108136;27;46350;-50
2022/06/21 09:48:09;;;;;;;;;17.00;16.50;;;;;24.69;48.54;100617.81;5104498;27;45335;-47
2022/06/21 09:50:52;;;;;;;;;17.00;14.00;;;;;25.44;47.83;100619.09;5103231;27;45231;-46
2022/06/21 09:53:51;;;;;;;;;17.00;13.50;;;;;26.37;47.12;100616.69;5107083;27;45369;-50
2022/06/21 09:56:43;;;;;;;;;17.75;14.50;;;;;27.36;45.29;100609.84;5112622;27;46588;-46
2022/06/21 09:59:21;;;;;;;;;14.25;12.00;;;;;28.28;44.29;100607.63;5106778;27;45733;-47
2022/06/21 10:02:05;;;;;;;;;13.00;13.00;;;;;29.20;43.42;100603.31;5111017;27;45428;-48
2022/06/21 10:04:38;;;;;;;;;18.00;14.25;;;;;30.04;42.17;100601.28;5112347;27;45748;-51
2022/06/21 10:07:25;;;;;;;;;15.00;13.75;;;;;30.77;37.78;100602.03;5108898;27;47152;-49
2022/06/21 10:10:08;;;;;;;;;15.25;12.75;;;;;31.43;36.69;100596.25;5112290;27;45898;-48
2022/06/21 10:12:39;;;;;;;;;14.50;12.75;;;;;31.98;37.63;100595.06;5109940;27;45272;-50
2022/06/21 10:15:32;;;;;;;;;14.25;13.25;;;;;32.59;37.90;100593.22;5107264;27;45482;-47
2022/06/21 10:18:32;;;;;;;;;10.25;8.50;;;;;33.25;35.30;100591.31;5114301;27;45474;-47
2022/06/21 10:21:19;;;;;;;;;16.50;14.00;;;;;33.78;36.34;100580.06;5106580;27;45531;-51
2022/06/21 10:24:20;;;;;;;;;12.25;12.25;;;;;34.17;35.04;100575.91;5114931;27;45499;-47
2022/06/21 10:27:04;;;;;;;;;11.00;10.75;;;;;34.67;32.76;100580.34;5092022;27;45697;-52
2022/06/21 10:29:38;;;;;;;;;14.50;12.00;;;;;35.03;33.84;100580.06;5117408;27;47533;-51
2022/06/21 10:32:30;;;;;;;;;12.25;11.25;;;;;35.40;31.53;100572.38;5106309;27;45787;-51
2022/06/21 10:35:17;;;;;;;;;13.25;12.00;;;;;35.83;31.89;100573.84;5112442;27;45652;-52
2022/06/21 10:37:57;;;;;;;;;12.25;11.25;;;;;36.14;31.51;100564.13;5111423;27;45378;-51
2022/06/21 10:40:41;;;;;;;;;12.25;12.25;;;;;36.45;29.42;100556.06;5114980;27;46328;-50
2022/06/21 10:43:43;;;;;;;;;12.50;12.25;;;;;36.77;29.01;100561.59;5108301;27;45852;-52
2022/06/21 10:46:20;;;;;;;;;13.50;9.75;;;;;36.92;28.88;100555.00;5107899;27;45563;-49
2022/06/21 10:48:49;;;;;;;;;15.25;13.50;;;;;37.16;29.13;100543.31;5117009;27;45417;-49
2022/06/21 10:51:21;;;;;;;;;12.00;11.00;;;;;37.47;29.14;100544.31;5106893;27;46278;-48
2022/06/21 10:54:24;;;;;;;;;10.00;10.00;;;;;37.91;28.88;100547.03;5112704;27;45444;-50
2022/06/21 10:57:14;;;;;;;;;15.75;15.00;;;;;38.53;26.55;100536.00;5105648;27;45474;-48
2022/06/21 11:02:48;;;;;;;;;10.75;9.75;;;;;39.58;27.08;100548.31;5111910;27;45486;-51
2022/06/21 11:05:37;;;;;;;;;13.00;10.00;;;;;40.02;26.16;100539.72;5107458;27;45769;-49
2022/06/21 11:08:13;;;;;;;;;10.25;10.25;;;;;40.32;23.67;100539.53;5112856;27;45311;-48
2022/06/21 11:11:04;;;;;;;;;9.25;9.25;;;;;40.57;25.63;100541.13;5109370;27;45336;-50
2022/06/21 11:13:35;;;;;;;;;11.50;9.50;;;;;40.87;23.91;100540.03;5103057;27;45494;-52
2022/06/21 11:16:23;;;;;;;;;11.75;10.75;;;;;41.18;24.28;100531.22;5109341;27;45872;-50
2022/06/21 11:19:10;;;;;;;;;10.75;10.75;;;;;41.59;24.18;100536.53;5097048;27;45440;-47
2022/06/21 11:21:44;;;;;;;;;12.00;11.00;;;;;41.95;22.72;100528.81;5108609;27;45503;-46
2022/06/21 11:24:15;;;;;;;;;14.00;11.00;;;;;42.24;23.19;100526.72;5107553;27;46823;-47
2022/06/21 11:26:58;;;;;;;;;13.00;11.75;;;;;42.62;22.44;100526.84;5105626;27;45419;-48
2022/06/21 11:29:23;;;;;;;;;9.25;9.00;;;;;43.08;22.05;100532.78;5098404;27;45467;-47
2022/06/21 11:31:51;;;;;;;;;12.00;8.00;;;;;43.45;21.19;100528.41;5101659;27;45403;-51
2022/06/21 11:34:37;;;;;;;;;7.25;7.25;;;;;43.78;21.03;100530.81;5101583;27;45310;-48
2022/06/21 11:37:35;;;;;;;;;10.25;9.25;;;;;44.14;21.59;100530.16;5109989;27;45281;-52
2022/06/21 11:40:29;;;;;;;;;11.00;8.75;;;;;44.35;21.51;100529.13;5102159;27;45573;-47
2022/06/21 11:42:57;;;;;;;;;10.75;10.00;;;;;44.41;20.36;100526.38;5106902;27;45445;-48
2022/06/21 11:45:44;;;;;;;;;10.50;10.00;;;;;44.33;20.08;100522.22;5103683;27;45506;-48
2022/06/21 11:48:30;;;;;;;;;15.00;11.00;;;;;44.01;20.38;100523.22;5102963;27;45629;-50
2022/06/21 11:51:10;;;;;;;;;11.75;10.75;;;;;43.67;20.48;100518.06;5106060;27;45416;-53
2022/06/21 11:54:14;;;;;;;;;8.75;8.75;;;;;43.22;20.96;100514.72;5111466;27;45685;-49
2022/06/21 11:57:05;;;;;;;;;11.50;11.00;;;;;42.49;22.01;100509.69;5087612;27;46558;-50
2022/06/21 12:00:01;;;;;;;;;10.00;9.25;;;;;41.74;22.41;100516.72;5104054;27;45353;-51
2022/06/21 12:02:38;;;;;;;;;10.50;8.25;;;;;40.71;21.80;100523.28;5105198;27;45412;-50
2022/06/21 12:05:16;;;;;;;;;9.00;9.00;;;;;39.73;22.59;100525.09;5102198;27;45557;-48
2022/06/21 12:08:13;;;;;;;;;11.50;11.50;;;;;38.96;23.42;100524.06;5104090;27;46215;-53